Ellington, New York
Current Conditions -  °F | °C
As of 4:15 PM on Tuesday 21 Oct 2014 (Local Time) from KJHW Reporting Station
Overcast Overcast  
Wind Chill: 44°   Ceiling: 4400
Heat Index: 48°   Visibility: 10mi
Dew Point: 43°   Wind: 9mph
Humidity: 82%   Direction: 330°NNW
Pressure: 29.9"   Gusts: NA
Location:  42.22°N, 79.11°W
Report Text: KJHW 212015Z AUTO 33008KT 10SM FEW034 BKN044 OVC050 09/06 A2990 RMK AO1
Loading
Personal Weather Stations






























Interactive Weather Map
Tropical Storm Tracking
New forecast layout! Learn more

10-Day Weather Forecast

Advertisements
Track Severe Weather on mobile